Terminal Aerodrome Forecast
Issued by NWS Charleston, SC

Home | Current Version | Previous Version | Text Only | Print | Product List | Glossary On
Versions: 1 2 3 4 5 6 7 8 9 10 11 12 13 14 15
305
FTUS42 KCHS 232123 AAA
TAFCHS
TAF AMD
KCHS 232123Z 2321/2418 13020G30KT 4SM RA BR SCT010 OVC020
      TEMPO 2321/2323 2SM +RA BR BKN008 OVC015
     FM240200 17012G18KT 5SM -SHRA BR OVC008
     FM241300 22009KT P6SM SCT025 BKN040=

USA.gov is the U.S. government's official web portal to all federal, state and local government web resources and services.